sensor_id;sensor_type;location;lat;lon;timestamp;P1;durP1;ratioP1;P2;durP2;ratioP2
51048;SDS011;37084;55.228;36.450;2023-05-16T00:00:47;5.90;;;4.75;;
51048;SDS011;37084;55.228;36.450;2023-05-16T00:03:49;7.72;;;4.85;;
51048;SDS011;37084;55.228;36.450;2023-05-16T00:06:51;6.50;;;4.80;;
51048;SDS011;37084;55.228;36.450;2023-05-16T00:09:52;8.55;;;4.93;;
51048;SDS011;37084;55.228;36.450;2023-05-16T00:12:53;7.15;;;4.20;;
51048;SDS011;37084;55.228;36.450;2023-05-16T00:15:56;5.25;;;4.07;;
51048;SDS011;37084;55.228;36.450;2023-05-16T00:18:59;6.82;;;4.25;;
51048;SDS011;37084;55.228;36.450;2023-05-16T00:22:00;5.32;;;4.00;;
51048;SDS011;37084;55.228;36.450;2023-05-16T00:25:03;5.30;;;4.30;;
51048;SDS011;37084;55.228;36.450;2023-05-16T00:28:05;7.63;;;4.63;;
51048;SDS011;37084;55.228;36.450;2023-05-16T00:31:08;8.48;;;5.63;;
51048;SDS011;37084;55.228;36.450;2023-05-16T00:34:09;5.47;;;4.50;;
51048;SDS011;37084;55.228;36.450;2023-05-16T00:37:11;6.75;;;4.63;;
51048;SDS011;37084;55.228;36.450;2023-05-16T00:40:13;8.88;;;5.13;;
51048;SDS011;37084;55.228;36.450;2023-05-16T00:43:16;8.43;;;5.07;;
51048;SDS011;37084;55.228;36.450;2023-05-16T00:46:17;5.88;;;4.38;;
51048;SDS011;37084;55.228;36.450;2023-05-16T00:49:19;7.63;;;4.60;;
51048;SDS011;37084;55.228;36.450;2023-05-16T00:52:21;6.65;;;4.70;;
51048;SDS011;37084;55.228;36.450;2023-05-16T00:55:22;7.25;;;4.45;;
51048;SDS011;37084;55.228;36.450;2023-05-16T00:58:24;7.10;;;4.85;;
51048;SDS011;37084;55.228;36.450;2023-05-16T01:01:27;5.70;;;4.57;;
51048;SDS011;37084;55.228;36.450;2023-05-16T01:04:29;5.93;;;4.45;;
51048;SDS011;37084;55.228;36.450;2023-05-16T01:07:31;10.45;;;5.20;;
51048;SDS011;37084;55.228;36.450;2023-05-16T01:10:35;6.90;;;4.78;;
51048;SDS011;37084;55.228;36.450;2023-05-16T01:13:47;7.57;;;5.25;;
51048;SDS011;37084;55.228;36.450;2023-05-16T01:17:28;6.53;;;5.10;;
51048;SDS011;37084;55.228;36.450;2023-05-16T01:20:58;6.15;;;5.25;;
51048;SDS011;37084;55.228;36.450;2023-05-16T01:24:08;7.35;;;5.07;;
51048;SDS011;37084;55.228;36.450;2023-05-16T01:27:11;6.43;;;4.97;;
51048;SDS011;37084;55.228;36.450;2023-05-16T01:30:15;7.45;;;5.10;;
51048;SDS011;37084;55.228;36.450;2023-05-16T01:33:18;6.13;;;4.90;;
51048;SDS011;37084;55.228;36.450;2023-05-16T01:39:32;6.35;;;3.28;;
51048;SDS011;37084;55.228;36.450;2023-05-16T01:42:42;5.65;;;4.47;;
51048;SDS011;37084;55.228;36.450;2023-05-16T01:45:50;5.68;;;4.13;;
51048;SDS011;37084;55.228;36.450;2023-05-16T01:49:14;5.28;;;3.65;;
51048;SDS011;37084;55.228;36.450;2023-05-16T01:55:51;6.57;;;4.43;;
51048;SDS011;37084;55.228;36.450;2023-05-16T01:59:00;6.82;;;4.72;;
51048;SDS011;37084;55.228;36.450;2023-05-16T02:02:02;5.43;;;4.72;;
51048;SDS011;37084;55.228;36.450;2023-05-16T02:05:05;5.85;;;4.95;;
51048;SDS011;37084;55.228;36.450;2023-05-16T02:08:07;6.93;;;4.25;;
51048;SDS011;37084;55.228;36.450;2023-05-16T02:11:08;5.82;;;5.05;;
51048;SDS011;37084;55.228;36.450;2023-05-16T02:14:10;5.45;;;4.95;;
51048;SDS011;37084;55.228;36.450;2023-05-16T02:17:12;6.25;;;4.80;;
51048;SDS011;37084;55.228;36.450;2023-05-16T02:20:13;4.72;;;4.18;;
51048;SDS011;37084;55.228;36.450;2023-05-16T02:23:18;7.03;;;4.47;;
51048;SDS011;37084;55.228;36.450;2023-05-16T02:26:20;5.45;;;4.82;;
51048;SDS011;37084;55.228;36.450;2023-05-16T02:29:21;6.10;;;4.90;;
51048;SDS011;37084;55.228;36.450;2023-05-16T02:32:23;6.20;;;4.50;;
51048;SDS011;37084;55.228;36.450;2023-05-16T02:35:26;8.10;;;4.32;;
51048;SDS011;37084;55.228;36.450;2023-05-16T02:38:27;6.07;;;4.47;;
51048;SDS011;37084;55.228;36.450;2023-05-16T02:41:29;6.55;;;4.75;;
51048;SDS011;37084;55.228;36.450;2023-05-16T02:44:32;6.80;;;4.72;;
51048;SDS011;37084;55.228;36.450;2023-05-16T02:47:34;4.50;;;3.90;;
51048;SDS011;37084;55.228;36.450;2023-05-16T02:50:35;5.55;;;4.28;;
51048;SDS011;37084;55.228;36.450;2023-05-16T02:53:37;6.22;;;4.40;;
51048;SDS011;37084;55.228;36.450;2023-05-16T02:56:38;6.90;;;4.95;;
51048;SDS011;37084;55.228;36.450;2023-05-16T02:59:39;6.55;;;4.70;;
51048;SDS011;37084;55.228;36.450;2023-05-16T03:02:41;5.38;;;4.78;;
51048;SDS011;37084;55.228;36.450;2023-05-16T03:05:43;7.65;;;4.60;;
51048;SDS011;37084;55.228;36.450;2023-05-16T03:08:44;5.28;;;4.07;;
51048;SDS011;37084;55.228;36.450;2023-05-16T03:11:46;5.30;;;4.60;;
51048;SDS011;37084;55.228;36.450;2023-05-16T03:14:47;9.07;;;4.75;;
51048;SDS011;37084;55.228;36.450;2023-05-16T03:17:48;7.55;;;4.88;;
51048;SDS011;37084;55.228;36.450;2023-05-16T03:20:50;6.88;;;5.20;;
51048;SDS011;37084;55.228;36.450;2023-05-16T03:23:53;7.20;;;4.75;;
51048;SDS011;37084;55.228;36.450;2023-05-16T03:26:55;7.35;;;4.80;;
51048;SDS011;37084;55.228;36.450;2023-05-16T03:29:56;6.28;;;4.30;;
51048;SDS011;37084;55.228;36.450;2023-05-16T03:32:58;5.82;;;5.20;;
51048;SDS011;37084;55.228;36.450;2023-05-16T03:35:59;6.15;;;4.32;;
51048;SDS011;37084;55.228;36.450;2023-05-16T03:39:00;5.35;;;4.35;;
51048;SDS011;37084;55.228;36.450;2023-05-16T03:42:02;4.22;;;3.65;;
51048;SDS011;37084;55.228;36.450;2023-05-16T03:45:04;7.78;;;4.70;;
51048;SDS011;37084;55.228;36.450;2023-05-16T03:48:07;9.63;;;5.78;;
51048;SDS011;37084;55.228;36.450;2023-05-16T03:51:09;11.27;;;5.70;;
51048;SDS011;37084;55.228;36.450;2023-05-16T03:54:10;13.00;;;7.22;;
51048;SDS011;37084;55.228;36.450;2023-05-16T03:57:11;15.30;;;9.02;;
51048;SDS011;37084;55.228;36.450;2023-05-16T04:00:13;14.88;;;8.43;;
51048;SDS011;37084;55.228;36.450;2023-05-16T04:03:15;13.00;;;7.72;;
51048;SDS011;37084;55.228;36.450;2023-05-16T04:06:16;14.05;;;8.80;;
51048;SDS011;37084;55.228;36.450;2023-05-16T04:09:17;12.68;;;7.72;;
51048;SDS011;37084;55.228;36.450;2023-05-16T04:12:19;11.38;;;6.95;;
51048;SDS011;37084;55.228;36.450;2023-05-16T04:15:21;9.38;;;6.00;;
51048;SDS011;37084;55.228;36.450;2023-05-16T04:18:22;10.45;;;5.85;;
51048;SDS011;37084;55.228;36.450;2023-05-16T04:21:23;9.15;;;5.97;;
51048;SDS011;37084;55.228;36.450;2023-05-16T04:24:25;9.40;;;5.80;;
51048;SDS011;37084;55.228;36.450;2023-05-16T04:27:28;8.52;;;5.35;;
51048;SDS011;37084;55.228;36.450;2023-05-16T04:30:31;8.60;;;5.63;;
51048;SDS011;37084;55.228;36.450;2023-05-16T04:33:32;8.15;;;5.05;;
51048;SDS011;37084;55.228;36.450;2023-05-16T04:36:33;8.70;;;5.50;;
51048;SDS011;37084;55.228;36.450;2023-05-16T04:39:35;8.48;;;5.05;;
51048;SDS011;37084;55.228;36.450;2023-05-16T04:42:36;8.18;;;5.40;;
51048;SDS011;37084;55.228;36.450;2023-05-16T04:45:38;9.20;;;5.72;;
51048;SDS011;37084;55.228;36.450;2023-05-16T04:48:39;7.10;;;5.43;;
51048;SDS011;37084;55.228;36.450;2023-05-16T04:51:41;6.30;;;5.13;;
51048;SDS011;37084;55.228;36.450;2023-05-16T04:54:42;7.03;;;5.15;;
51048;SDS011;37084;55.228;36.450;2023-05-16T04:57:43;7.05;;;5.10;;
51048;SDS011;37084;55.228;36.450;2023-05-16T05:00:45;8.18;;;5.22;;
51048;SDS011;37084;55.228;36.450;2023-05-16T05:03:47;7.20;;;5.32;;
51048;SDS011;37084;55.228;36.450;2023-05-16T05:06:48;9.07;;;5.80;;
51048;SDS011;37084;55.228;36.450;2023-05-16T05:09:50;7.05;;;5.18;;
51048;SDS011;37084;55.228;36.450;2023-05-16T05:12:53;8.48;;;4.85;;
51048;SDS011;37084;55.228;36.450;2023-05-16T05:15:54;7.45;;;5.28;;
51048;SDS011;37084;55.228;36.450;2023-05-16T05:18:56;8.40;;;4.72;;
51048;SDS011;37084;55.228;36.450;2023-05-16T05:21:57;9.38;;;4.05;;
51048;SDS011;37084;55.228;36.450;2023-05-16T05:24:59;8.50;;;4.75;;
51048;SDS011;37084;55.228;36.450;2023-05-16T05:28:01;8.90;;;4.38;;
51048;SDS011;37084;55.228;36.450;2023-05-16T05:31:02;5.22;;;3.92;;
51048;SDS011;37084;55.228;36.450;2023-05-16T05:34:05;5.35;;;3.83;;
51048;SDS011;37084;55.228;36.450;2023-05-16T05:37:06;6.32;;;4.15;;
51048;SDS011;37084;55.228;36.450;2023-05-16T05:40:07;8.10;;;4.35;;
51048;SDS011;37084;55.228;36.450;2023-05-16T05:43:09;4.22;;;3.72;;
51048;SDS011;37084;55.228;36.450;2023-05-16T05:46:10;4.43;;;3.67;;
51048;SDS011;37084;55.228;36.450;2023-05-16T05:49:11;5.88;;;3.75;;
51048;SDS011;37084;55.228;36.450;2023-05-16T05:52:13;4.15;;;3.38;;
51048;SDS011;37084;55.228;36.450;2023-05-16T05:55:14;4.40;;;3.53;;
51048;SDS011;37084;55.228;36.450;2023-05-16T05:58:16;5.05;;;3.60;;
51048;SDS011;37084;55.228;36.450;2023-05-16T06:01:17;8.68;;;3.95;;
51048;SDS011;37084;55.228;36.450;2023-05-16T06:04:21;5.55;;;4.03;;
51048;SDS011;37084;55.228;36.450;2023-05-16T06:07:22;4.65;;;3.85;;
51048;SDS011;37084;55.228;36.450;2023-05-16T06:10:23;5.88;;;2.75;;
51048;SDS011;37084;55.228;36.450;2023-05-16T06:13:24;5.80;;;3.63;;
51048;SDS011;37084;55.228;36.450;2023-05-16T06:16:26;7.05;;;3.90;;
51048;SDS011;37084;55.228;36.450;2023-05-16T06:19:27;6.95;;;4.40;;
51048;SDS011;37084;55.228;36.450;2023-05-16T06:22:28;6.60;;;3.90;;
51048;SDS011;37084;55.228;36.450;2023-05-16T06:25:30;8.15;;;4.00;;
51048;SDS011;37084;55.228;36.450;2023-05-16T06:28:31;7.35;;;4.32;;
51048;SDS011;37084;55.228;36.450;2023-05-16T06:31:32;8.40;;;4.93;;
51048;SDS011;37084;55.228;36.450;2023-05-16T06:34:34;5.45;;;4.28;;
51048;SDS011;37084;55.228;36.450;2023-05-16T06:37:35;9.23;;;3.33;;
51048;SDS011;37084;55.228;36.450;2023-05-16T06:40:36;8.43;;;4.25;;
51048;SDS011;37084;55.228;36.450;2023-05-16T06:43:38;5.28;;;3.63;;
51048;SDS011;37084;55.228;36.450;2023-05-16T06:46:42;7.20;;;3.70;;
51048;SDS011;37084;55.228;36.450;2023-05-16T06:49:44;5.78;;;3.00;;
51048;SDS011;37084;55.228;36.450;2023-05-16T06:52:45;4.85;;;3.30;;
51048;SDS011;37084;55.228;36.450;2023-05-16T06:55:46;3.92;;;2.63;;
51048;SDS011;37084;55.228;36.450;2023-05-16T06:58:48;3.50;;;2.75;;
51048;SDS011;37084;55.228;36.450;2023-05-16T07:01:49;2.67;;;2.30;;
51048;SDS011;37084;55.228;36.450;2023-05-16T07:04:51;4.20;;;2.47;;
51048;SDS011;37084;55.228;36.450;2023-05-16T07:07:52;2.47;;;2.17;;
51048;SDS011;37084;55.228;36.450;2023-05-16T07:10:53;4.03;;;2.50;;
51048;SDS011;37084;55.228;36.450;2023-05-16T07:13:54;6.55;;;2.30;;
51048;SDS011;37084;55.228;36.450;2023-05-16T07:16:56;2.85;;;2.65;;
51048;SDS011;37084;55.228;36.450;2023-05-16T07:19:57;3.20;;;2.28;;
51048;SDS011;37084;55.228;36.450;2023-05-16T07:22:58;3.90;;;2.00;;
51048;SDS011;37084;55.228;36.450;2023-05-16T07:25:59;5.65;;;2.22;;
51048;SDS011;37084;55.228;36.450;2023-05-16T07:29:01;4.35;;;2.15;;
51048;SDS011;37084;55.228;36.450;2023-05-16T07:32:04;2.78;;;1.90;;
51048;SDS011;37084;55.228;36.450;2023-05-16T07:35:06;2.25;;;2.05;;
51048;SDS011;37084;55.228;36.450;2023-05-16T07:38:07;2.88;;;1.80;;
51048;SDS011;37084;55.228;36.450;2023-05-16T07:41:09;5.10;;;1.88;;
51048;SDS011;37084;55.228;36.450;2023-05-16T07:44:10;3.50;;;2.25;;
51048;SDS011;37084;55.228;36.450;2023-05-16T07:47:12;6.47;;;2.03;;
51048;SDS011;37084;55.228;36.450;2023-05-16T07:50:13;3.67;;;1.70;;
51048;SDS011;37084;55.228;36.450;2023-05-16T07:53:15;2.10;;;1.75;;
51048;SDS011;37084;55.228;36.450;2023-05-16T07:56:16;12.35;;;1.92;;
51048;SDS011;37084;55.228;36.450;2023-05-16T07:59:17;2.08;;;1.88;;
51048;SDS011;37084;55.228;36.450;2023-05-16T08:02:19;2.83;;;1.45;;
51048;SDS011;37084;55.228;36.450;2023-05-16T08:05:20;3.03;;;1.70;;
51048;SDS011;37084;55.228;36.450;2023-05-16T08:08:21;1.95;;;1.75;;
51048;SDS011;37084;55.228;36.450;2023-05-16T08:11:23;3.25;;;1.83;;
51048;SDS011;37084;55.228;36.450;2023-05-16T08:14:24;4.47;;;2.00;;
51048;SDS011;37084;55.228;36.450;2023-05-16T08:17:25;1.73;;;1.60;;
51048;SDS011;37084;55.228;36.450;2023-05-16T08:20:26;3.03;;;1.70;;
51048;SDS011;37084;55.228;36.450;2023-05-16T08:23:28;2.20;;;1.58;;
51048;SDS011;37084;55.228;36.450;2023-05-16T08:26:30;6.97;;;1.90;;
51048;SDS011;37084;55.228;36.450;2023-05-16T08:29:32;3.45;;;2.10;;
51048;SDS011;37084;55.228;36.450;2023-05-16T08:32:33;2.92;;;1.70;;
51048;SDS011;37084;55.228;36.450;2023-05-16T08:35:35;2.50;;;1.48;;
51048;SDS011;37084;55.228;36.450;2023-05-16T08:38:36;2.95;;;1.60;;
51048;SDS011;37084;55.228;36.450;2023-05-16T08:41:37;2.28;;;2.08;;
51048;SDS011;37084;55.228;36.450;2023-05-16T08:44:39;4.60;;;2.25;;
51048;SDS011;37084;55.228;36.450;2023-05-16T08:47:41;1.70;;;1.15;;
51048;SDS011;37084;55.228;36.450;2023-05-16T08:50:42;3.28;;;1.63;;
51048;SDS011;37084;55.228;36.450;2023-05-16T08:53:44;2.35;;;1.70;;
51048;SDS011;37084;55.228;36.450;2023-05-16T08:56:48;4.75;;;1.48;;
51048;SDS011;37084;55.228;36.450;2023-05-16T08:59:50;1.85;;;1.65;;
51048;SDS011;37084;55.228;36.450;2023-05-16T09:05:55;1.35;;;1.25;;
51048;SDS011;37084;55.228;36.450;2023-05-16T09:08:57;2.33;;;1.50;;
51048;SDS011;37084;55.228;36.450;2023-05-16T09:11:58;2.22;;;1.50;;
51048;SDS011;37084;55.228;36.450;2023-05-16T09:15:03;2.75;;;1.38;;
51048;SDS011;37084;55.228;36.450;2023-05-16T09:18:10;1.65;;;1.20;;
51048;SDS011;37084;55.228;36.450;2023-05-16T09:21:12;3.08;;;1.60;;
51048;SDS011;37084;55.228;36.450;2023-05-16T09:24:15;2.03;;;1.60;;
51048;SDS011;37084;55.228;36.450;2023-05-16T09:27:16;3.05;;;1.40;;
51048;SDS011;37084;55.228;36.450;2023-05-16T09:30:20;1.83;;;1.27;;
51048;SDS011;37084;55.228;36.450;2023-05-16T09:33:25;1.48;;;1.30;;
51048;SDS011;37084;55.228;36.450;2023-05-16T09:36:27;1.20;;;1.10;;
51048;SDS011;37084;55.228;36.450;2023-05-16T09:39:29;1.55;;;1.42;;
51048;SDS011;37084;55.228;36.450;2023-05-16T09:42:30;1.77;;;1.17;;
51048;SDS011;37084;55.228;36.450;2023-05-16T09:45:31;2.08;;;1.75;;
51048;SDS011;37084;55.228;36.450;2023-05-16T09:48:33;4.20;;;1.40;;
51048;SDS011;37084;55.228;36.450;2023-05-16T09:51:35;2.63;;;1.30;;
51048;SDS011;37084;55.228;36.450;2023-05-16T09:54:37;2.03;;;1.30;;
51048;SDS011;37084;55.228;36.450;2023-05-16T09:57:38;1.77;;;1.25;;
51048;SDS011;37084;55.228;36.450;2023-05-16T10:00:40;1.33;;;1.20;;
51048;SDS011;37084;55.228;36.450;2023-05-16T10:03:41;1.20;;;0.77;;
51048;SDS011;37084;55.228;36.450;2023-05-16T10:06:43;2.33;;;1.30;;
51048;SDS011;37084;55.228;36.450;2023-05-16T10:09:45;4.20;;;1.45;;
51048;SDS011;37084;55.228;36.450;2023-05-16T10:12:47;1.23;;;1.08;;
51048;SDS011;37084;55.228;36.450;2023-05-16T10:15:49;1.25;;;1.00;;
51048;SDS011;37084;55.228;36.450;2023-05-16T10:18:51;1.10;;;1.05;;
51048;SDS011;37084;55.228;36.450;2023-05-16T10:21:53;1.95;;;1.20;;
51048;SDS011;37084;55.228;36.450;2023-05-16T10:28:33;2.30;;;1.20;;
51048;SDS011;37084;55.228;36.450;2023-05-16T10:31:36;2.25;;;1.17;;
51048;SDS011;37084;55.228;36.450;2023-05-16T10:34:37;2.17;;;0.90;;
51048;SDS011;37084;55.228;36.450;2023-05-16T10:37:39;3.10;;;1.10;;
51048;SDS011;37084;55.228;36.450;2023-05-16T10:40:41;1.63;;;1.15;;
51048;SDS011;37084;55.228;36.450;2023-05-16T10:43:43;1.88;;;1.30;;
51048;SDS011;37084;55.228;36.450;2023-05-16T10:46:46;1.23;;;1.02;;
51048;SDS011;37084;55.228;36.450;2023-05-16T10:49:47;1.98;;;1.30;;
51048;SDS011;37084;55.228;36.450;2023-05-16T10:52:51;1.55;;;1.23;;
51048;SDS011;37084;55.228;36.450;2023-05-16T10:59:00;1.63;;;1.00;;
51048;SDS011;37084;55.228;36.450;2023-05-16T11:02:02;1.40;;;1.27;;
51048;SDS011;37084;55.228;36.450;2023-05-16T11:05:03;2.95;;;0.98;;
51048;SDS011;37084;55.228;36.450;2023-05-16T11:08:06;1.25;;;1.13;;
51048;SDS011;37084;55.228;36.450;2023-05-16T11:14:44;2.45;;;1.10;;
51048;SDS011;37084;55.228;36.450;2023-05-16T11:18:07;1.20;;;1.02;;
51048;SDS011;37084;55.228;36.450;2023-05-16T11:21:09;2.08;;;0.80;;
51048;SDS011;37084;55.228;36.450;2023-05-16T11:24:47;1.70;;;1.15;;
51048;SDS011;37084;55.228;36.450;2023-05-16T11:27:43;1.38;;;1.00;;
51048;SDS011;37084;55.228;36.450;2023-05-16T11:30:48;1.60;;;1.10;;
51048;SDS011;37084;55.228;36.450;2023-05-16T11:33:51;1.75;;;1.10;;
51048;SDS011;37084;55.228;36.450;2023-05-16T11:36:53;1.90;;;1.08;;
51048;SDS011;37084;55.228;36.450;2023-05-16T11:39:59;0.98;;;0.95;;
51048;SDS011;37084;55.228;36.450;2023-05-16T11:43:01;3.85;;;1.30;;
51048;SDS011;37084;55.228;36.450;2023-05-16T11:46:03;1.75;;;1.02;;
51048;SDS011;37084;55.228;36.450;2023-05-16T11:49:05;1.27;;;1.00;;
51048;SDS011;37084;55.228;36.450;2023-05-16T11:52:09;1.50;;;1.10;;
51048;SDS011;37084;55.228;36.450;2023-05-16T11:55:10;1.73;;;0.98;;
51048;SDS011;37084;55.228;36.450;2023-05-16T11:58:12;1.17;;;1.08;;
51048;SDS011;37084;55.228;36.450;2023-05-16T12:01:16;1.48;;;1.10;;
51048;SDS011;37084;55.228;36.450;2023-05-16T12:04:18;1.95;;;1.00;;
51048;SDS011;37084;55.228;36.450;2023-05-16T12:07:20;2.30;;;0.73;;
51048;SDS011;37084;55.228;36.450;2023-05-16T12:10:21;2.35;;;1.23;;
51048;SDS011;37084;55.228;36.450;2023-05-16T12:13:23;1.95;;;1.40;;
51048;SDS011;37084;55.228;36.450;2023-05-16T12:16:24;1.60;;;1.00;;
51048;SDS011;37084;55.228;36.450;2023-05-16T12:19:26;1.95;;;1.13;;
51048;SDS011;37084;55.228;36.450;2023-05-16T12:22:27;1.98;;;1.10;;
51048;SDS011;37084;55.228;36.450;2023-05-16T12:25:29;1.55;;;1.13;;
51048;SDS011;37084;55.228;36.450;2023-05-16T12:28:32;1.95;;;0.95;;
51048;SDS011;37084;55.228;36.450;2023-05-16T12:31:35;2.13;;;1.00;;
51048;SDS011;37084;55.228;36.450;2023-05-16T12:34:38;4.35;;;1.35;;
51048;SDS011;37084;55.228;36.450;2023-05-16T12:37:42;2.63;;;1.00;;
51048;SDS011;37084;55.228;36.450;2023-05-16T12:40:43;1.67;;;0.70;;
51048;SDS011;37084;55.228;36.450;2023-05-16T12:43:44;3.97;;;1.48;;
51048;SDS011;37084;55.228;36.450;2023-05-16T12:46:46;5.07;;;1.02;;
51048;SDS011;37084;55.228;36.450;2023-05-16T12:49:50;3.72;;;1.15;;
51048;SDS011;37084;55.228;36.450;2023-05-16T12:52:52;3.20;;;0.90;;
51048;SDS011;37084;55.228;36.450;2023-05-16T12:55:54;1.25;;;1.15;;
51048;SDS011;37084;55.228;36.450;2023-05-16T12:58:55;2.97;;;1.08;;
51048;SDS011;37084;55.228;36.450;2023-05-16T13:01:57;4.00;;;1.40;;
51048;SDS011;37084;55.228;36.450;2023-05-16T13:04:58;2.90;;;1.15;;
51048;SDS011;37084;55.228;36.450;2023-05-16T13:07:59;9.02;;;1.25;;
51048;SDS011;37084;55.228;36.450;2023-05-16T13:11:00;1.75;;;0.93;;
51048;SDS011;37084;55.228;36.450;2023-05-16T13:14:01;2.22;;;1.05;;
51048;SDS011;37084;55.228;36.450;2023-05-16T13:17:03;2.03;;;1.30;;
51048;SDS011;37084;55.228;36.450;2023-05-16T13:20:04;2.88;;;1.10;;
51048;SDS011;37084;55.228;36.450;2023-05-16T13:23:10;2.50;;;1.20;;
51048;SDS011;37084;55.228;36.450;2023-05-16T13:26:11;2.60;;;1.10;;
51048;SDS011;37084;55.228;36.450;2023-05-16T13:29:12;1.33;;;0.98;;
51048;SDS011;37084;55.228;36.450;2023-05-16T13:32:14;1.35;;;0.90;;
51048;SDS011;37084;55.228;36.450;2023-05-16T13:35:15;1.92;;;1.10;;
51048;SDS011;37084;55.228;36.450;2023-05-16T13:38:16;4.25;;;1.08;;
51048;SDS011;37084;55.228;36.450;2023-05-16T13:41:18;1.63;;;1.00;;
51048;SDS011;37084;55.228;36.450;2023-05-16T13:44:19;1.77;;;1.17;;
51048;SDS011;37084;55.228;36.450;2023-05-16T13:47:21;3.78;;;1.17;;
51048;SDS011;37084;55.228;36.450;2023-05-16T13:50:22;2.42;;;1.00;;
51048;SDS011;37084;55.228;36.450;2023-05-16T13:53:23;1.80;;;1.10;;
51048;SDS011;37084;55.228;36.450;2023-05-16T13:56:24;4.45;;;0.88;;
51048;SDS011;37084;55.228;36.450;2023-05-16T13:59:26;3.20;;;0.85;;
51048;SDS011;37084;55.228;36.450;2023-05-16T14:02:27;2.92;;;1.00;;
51048;SDS011;37084;55.228;36.450;2023-05-16T14:05:28;3.17;;;1.58;;
51048;SDS011;37084;55.228;36.450;2023-05-16T14:08:29;2.72;;;1.00;;
51048;SDS011;37084;55.228;36.450;2023-05-16T14:11:30;2.38;;;0.80;;
51048;SDS011;37084;55.228;36.450;2023-05-16T14:14:32;3.83;;;1.20;;
51048;SDS011;37084;55.228;36.450;2023-05-16T14:17:34;2.40;;;1.10;;
51048;SDS011;37084;55.228;36.450;2023-05-16T14:20:35;2.95;;;1.20;;
51048;SDS011;37084;55.228;36.450;2023-05-16T14:23:36;1.63;;;1.20;;
51048;SDS011;37084;55.228;36.450;2023-05-16T14:26:37;5.35;;;1.00;;
51048;SDS011;37084;55.228;36.450;2023-05-16T14:29:38;2.53;;;0.90;;
51048;SDS011;37084;55.228;36.450;2023-05-16T14:32:39;2.67;;;0.90;;
51048;SDS011;37084;55.228;36.450;2023-05-16T14:35:40;5.55;;;0.93;;
51048;SDS011;37084;55.228;36.450;2023-05-16T14:38:42;1.27;;;0.82;;
51048;SDS011;37084;55.228;36.450;2023-05-16T14:41:43;2.40;;;1.05;;
51048;SDS011;37084;55.228;36.450;2023-05-16T14:44:44;1.83;;;0.85;;
51048;SDS011;37084;55.228;36.450;2023-05-16T14:47:45;2.60;;;0.95;;
51048;SDS011;37084;55.228;36.450;2023-05-16T14:50:47;3.25;;;1.00;;
51048;SDS011;37084;55.228;36.450;2023-05-16T14:53:48;2.47;;;0.98;;
51048;SDS011;37084;55.228;36.450;2023-05-16T14:56:50;4.60;;;1.00;;
51048;SDS011;37084;55.228;36.450;2023-05-16T14:59:51;1.58;;;1.00;;
51048;SDS011;37084;55.228;36.450;2023-05-16T15:02:52;2.22;;;0.80;;
51048;SDS011;37084;55.228;36.450;2023-05-16T15:05:53;1.27;;;0.85;;
51048;SDS011;37084;55.228;36.450;2023-05-16T15:08:57;1.83;;;0.95;;
51048;SDS011;37084;55.228;36.450;2023-05-16T15:11:58;2.17;;;0.68;;
51048;SDS011;37084;55.228;36.450;2023-05-16T15:15:01;2.85;;;0.57;;
51048;SDS011;37084;55.228;36.450;2023-05-16T15:18:05;1.92;;;1.00;;
51048;SDS011;37084;55.228;36.450;2023-05-16T15:21:06;3.60;;;1.00;;
51048;SDS011;37084;55.228;36.450;2023-05-16T15:24:08;4.38;;;1.25;;
51048;SDS011;37084;55.228;36.450;2023-05-16T15:27:09;1.42;;;1.10;;
51048;SDS011;37084;55.228;36.450;2023-05-16T15:30:11;2.03;;;1.00;;
51048;SDS011;37084;55.228;36.450;2023-05-16T15:33:12;1.75;;;1.02;;
51048;SDS011;37084;55.228;36.450;2023-05-16T15:36:14;2.13;;;0.90;;
51048;SDS011;37084;55.228;36.450;2023-05-16T15:39:16;1.58;;;0.85;;
51048;SDS011;37084;55.228;36.450;2023-05-16T15:42:17;2.65;;;1.00;;
51048;SDS011;37084;55.228;36.450;2023-05-16T15:45:19;3.55;;;1.05;;
51048;SDS011;37084;55.228;36.450;2023-05-16T15:48:21;2.85;;;1.30;;
51048;SDS011;37084;55.228;36.450;2023-05-16T15:51:25;2.10;;;1.42;;
51048;SDS011;37084;55.228;36.450;2023-05-16T15:54:26;1.88;;;1.02;;
51048;SDS011;37084;55.228;36.450;2023-05-16T15:57:28;3.28;;;1.50;;
51048;SDS011;37084;55.228;36.450;2023-05-16T16:00:30;3.58;;;1.23;;
51048;SDS011;37084;55.228;36.450;2023-05-16T16:03:31;3.03;;;1.10;;
51048;SDS011;37084;55.228;36.450;2023-05-16T16:06:32;1.52;;;1.00;;
51048;SDS011;37084;55.228;36.450;2023-05-16T16:09:33;2.70;;;1.17;;
51048;SDS011;37084;55.228;36.450;2023-05-16T16:12:35;3.33;;;0.98;;
51048;SDS011;37084;55.228;36.450;2023-05-16T16:15:37;2.35;;;1.02;;
51048;SDS011;37084;55.228;36.450;2023-05-16T16:18:38;2.70;;;1.13;;
51048;SDS011;37084;55.228;36.450;2023-05-16T16:21:39;5.38;;;1.05;;
51048;SDS011;37084;55.228;36.450;2023-05-16T16:24:41;4.03;;;1.52;;
51048;SDS011;37084;55.228;36.450;2023-05-16T16:27:42;1.27;;;0.88;;
51048;SDS011;37084;55.228;36.450;2023-05-16T16:30:44;2.97;;;0.90;;
51048;SDS011;37084;55.228;36.450;2023-05-16T16:33:46;2.75;;;1.30;;
51048;SDS011;37084;55.228;36.450;2023-05-16T16:36:48;3.17;;;1.58;;
51048;SDS011;37084;55.228;36.450;2023-05-16T16:39:50;5.60;;;1.10;;
51048;SDS011;37084;55.228;36.450;2023-05-16T16:42:51;1.88;;;1.17;;
51048;SDS011;37084;55.228;36.450;2023-05-16T16:45:52;3.55;;;1.17;;
51048;SDS011;37084;55.228;36.450;2023-05-16T16:48:53;3.95;;;1.20;;
51048;SDS011;37084;55.228;36.450;2023-05-16T16:51:54;6.60;;;1.25;;
51048;SDS011;37084;55.228;36.450;2023-05-16T16:54:57;3.58;;;1.23;;
51048;SDS011;37084;55.228;36.450;2023-05-16T16:57:58;4.90;;;1.60;;
51048;SDS011;37084;55.228;36.450;2023-05-16T17:01:00;3.35;;;1.17;;
51048;SDS011;37084;55.228;36.450;2023-05-16T17:04:02;3.63;;;1.17;;
51048;SDS011;37084;55.228;36.450;2023-05-16T17:07:03;5.72;;;1.20;;
51048;SDS011;37084;55.228;36.450;2023-05-16T17:10:05;2.08;;;1.45;;
51048;SDS011;37084;55.228;36.450;2023-05-16T17:13:07;4.43;;;1.20;;
51048;SDS011;37084;55.228;36.450;2023-05-16T17:16:11;3.30;;;1.50;;
51048;SDS011;37084;55.228;36.450;2023-05-16T17:19:12;4.72;;;1.50;;
51048;SDS011;37084;55.228;36.450;2023-05-16T17:22:13;3.25;;;1.60;;
51048;SDS011;37084;55.228;36.450;2023-05-16T17:25:14;5.53;;;1.92;;
51048;SDS011;37084;55.228;36.450;2023-05-16T17:28:16;6.43;;;1.73;;
51048;SDS011;37084;55.228;36.450;2023-05-16T17:31:17;9.45;;;1.70;;
51048;SDS011;37084;55.228;36.450;2023-05-16T17:34:18;4.40;;;1.70;;
51048;SDS011;37084;55.228;36.450;2023-05-16T17:37:19;3.42;;;1.90;;
51048;SDS011;37084;55.228;36.450;2023-05-16T17:40:21;6.30;;;1.80;;
51048;SDS011;37084;55.228;36.450;2023-05-16T17:43:22;4.78;;;1.90;;
51048;SDS011;37084;55.228;36.450;2023-05-16T17:46:23;6.60;;;2.42;;
51048;SDS011;37084;55.228;36.450;2023-05-16T17:49:25;3.72;;;2.00;;
51048;SDS011;37084;55.228;36.450;2023-05-16T17:52:26;2.95;;;2.25;;
51048;SDS011;37084;55.228;36.450;2023-05-16T17:55:27;5.43;;;1.80;;
51048;SDS011;37084;55.228;36.450;2023-05-16T17:58:28;2.72;;;1.65;;
51048;SDS011;37084;55.228;36.450;2023-05-16T18:01:29;2.85;;;2.58;;
51048;SDS011;37084;55.228;36.450;2023-05-16T18:04:30;5.30;;;2.92;;
51048;SDS011;37084;55.228;36.450;2023-05-16T18:07:31;5.55;;;2.65;;
51048;SDS011;37084;55.228;36.450;2023-05-16T18:10:33;7.57;;;3.08;;
51048;SDS011;37084;55.228;36.450;2023-05-16T18:13:34;6.45;;;2.38;;
51048;SDS011;37084;55.228;36.450;2023-05-16T18:16:36;3.80;;;2.75;;
51048;SDS011;37084;55.228;36.450;2023-05-16T18:19:37;4.95;;;2.47;;